Terminal Aerodrome Forecast
Issued by NWS Greer, SC

Home | Current Version | Previous Version | Text Only | Print | Product List | Glossary On
Versions: 1 2 3 4 5 6 7 8 9 10 11 12 13 14 15 16 17 18 19 20 21 22 23 24 25 26 27 28 29 30 31 32 33
000
FTUS42 KGSP 252338
TAFGSP
TAF
KGSP 252338Z 2600/2624 35009KT P6SM SCT050 BKN080
     FM260600 36003KT P6SM BKN070
     FM261600 12005KT P6SM BKN030 PROB30 2616/2621 3SM -SHRA OVC015
     FM262100 VRB03KT 4SM -SHRA OVC024=

USA.gov is the U.S. government's official web portal to all federal, state and local government web resources and services.